createdAt,value
2023-05-15T00:01:26.657Z,102372.66
2023-05-15T00:03:55.372Z,102364.16
2023-05-15T00:06:23.868Z,102366.06
2023-05-15T00:08:52.344Z,102364.38
2023-05-15T00:11:23.692Z,102369.53
2023-05-15T00:13:53.421Z,102363.91
2023-05-15T00:16:22.143Z,102368.50
2023-05-15T00:18:50.611Z,102370.16
2023-05-15T00:21:18.903Z,102365.59
2023-05-15T00:23:47.723Z,102367.16
2023-05-15T00:26:16.571Z,102366.56
2023-05-15T00:28:44.765Z,102371.16
2023-05-15T00:31:14.947Z,102368.16
2023-05-15T00:33:43.300Z,102368.16
2023-05-15T00:36:11.718Z,102374.41
2023-05-15T00:38:39.921Z,102372.56
2023-05-15T00:41:09.037Z,102372.44
2023-05-15T00:43:38.026Z,102368.63
2023-05-15T00:46:08.306Z,102367.66
2023-05-15T00:48:38.862Z,102371.28
2023-05-15T00:51:07.124Z,102369.97
2023-05-15T00:53:35.479Z,102369.97
2023-05-15T00:56:06.058Z,102379.44
2023-05-15T00:58:35.550Z,102376.34
2023-05-15T01:01:04.464Z,102377.69
2023-05-15T01:03:33.987Z,102366.69
2023-05-15T01:06:03.756Z,102384.16
2023-05-15T01:08:41.359Z,102384.06
2023-05-15T01:11:10.592Z,102380.97
2023-05-15T01:13:38.831Z,102381.81
2023-05-15T01:16:07.964Z,102383.84
2023-05-15T01:18:37.044Z,102385.53
2023-05-15T01:21:36.379Z,102387.56
2023-05-15T01:24:21.933Z,102385.31
2023-05-15T01:27:19.463Z,102379.72
2023-05-15T01:29:57.120Z,102383.41
2023-05-15T01:32:31.077Z,102385.06
2023-05-15T01:35:07.687Z,102377.78
2023-05-15T01:37:42.463Z,102386.41
2023-05-15T01:40:13.136Z,102391.09
2023-05-15T01:42:48.205Z,102397.44
2023-05-15T01:45:17.184Z,102399.13
2023-05-15T01:47:47.662Z,102399.34
2023-05-15T01:50:19.889Z,102387.50
2023-05-15T01:52:50.717Z,102396.59
2023-05-15T01:55:21.395Z,102389.78
2023-05-15T01:57:52.401Z,102391.72
2023-05-15T02:00:22.045Z,102396.84
2023-05-15T02:02:51.298Z,102406.44
2023-05-15T02:05:20.126Z,102394.94
2023-05-15T02:07:49.577Z,102404.06
2023-05-15T02:10:19.620Z,102402.38
2023-05-15T02:12:48.455Z,102390.66
2023-05-15T02:15:18.842Z,102397.59
2023-05-15T02:17:47.995Z,102388.16
2023-05-15T02:20:16.291Z,102389.94
2023-05-15T02:22:44.460Z,102386.50
2023-05-15T02:25:12.644Z,102386.50
2023-05-15T02:27:49.841Z,102391.84
2023-05-15T02:30:34.343Z,102390.44
2023-05-15T02:33:13.892Z,102392.34
2023-05-15T02:35:49.725Z,102394.16
2023-05-15T02:38:21.345Z,102399.28
2023-05-15T02:40:49.684Z,102403.38
2023-05-15T02:43:20.154Z,102396.31
2023-05-15T02:45:50.711Z,102400.84
2023-05-15T02:48:19.435Z,102402.66
2023-05-15T02:50:47.833Z,102398.22
2023-05-15T02:53:16.445Z,102398.22
2023-05-15T02:55:44.560Z,102404.59
2023-05-15T02:58:13.068Z,102404.59
2023-05-15T03:00:41.378Z,102411.88
2023-05-15T03:03:11.030Z,102412.13
2023-05-15T03:05:39.207Z,102410.09
2023-05-15T03:08:07.625Z,102409.03
2023-05-15T03:10:35.887Z,102408.06
2023-05-15T03:13:04.452Z,102411.66
2023-05-15T03:15:32.617Z,102415.63
2023-05-15T03:18:00.787Z,102411.31
2023-05-15T03:20:30.404Z,102414.66
2023-05-15T03:22:58.618Z,102417.78
2023-05-15T03:25:27.412Z,102411.78
2023-05-15T03:27:55.896Z,102420.84
2023-05-15T03:30:24.365Z,102417.53
2023-05-15T03:32:52.613Z,102416.81
2023-05-15T03:35:21.014Z,102422.44
2023-05-15T03:37:50.613Z,102426.13
2023-05-15T03:40:18.776Z,102423.63
2023-05-15T03:42:46.986Z,102422.66
2023-05-15T03:45:15.232Z,102420.38
2023-05-15T03:47:43.423Z,102429.59
2023-05-15T03:50:12.671Z,102421.91
2023-05-15T03:52:42.245Z,102424.66
2023-05-15T03:55:12.083Z,102413.75
2023-05-15T03:57:41.639Z,102411.13
2023-05-15T04:00:11.339Z,102419.84
2023-05-15T04:02:40.377Z,102408.75
2023-05-15T04:05:09.629Z,102413.19
2023-05-15T04:07:39.121Z,102416.75
2023-05-15T04:10:09.187Z,102412.66
2023-05-15T04:12:38.856Z,102412.91
2023-05-15T04:15:17.653Z,102408.63
2023-05-15T04:17:47.097Z,102397.97
2023-05-15T04:20:18.021Z,102406.81
2023-05-15T04:22:46.891Z,102416.25
2023-05-15T04:25:16.253Z,102407.66
2023-05-15T04:27:46.134Z,102413.63
2023-05-15T04:30:14.723Z,102407.31
2023-05-15T04:32:43.432Z,102411.38
2023-05-15T04:35:13.638Z,102405.16
2023-05-15T04:37:43.102Z,102415.22
2023-05-15T04:40:12.332Z,102413.53
2023-05-15T04:42:40.533Z,102408.28
2023-05-15T04:45:10.961Z,102412.47
2023-05-15T04:47:39.342Z,102409.50
2023-05-15T04:50:09.264Z,102407.94
2023-05-15T04:52:37.528Z,102399.81
2023-05-15T04:55:06.714Z,102401.16
2023-05-15T04:57:34.931Z,102405.69
2023-05-15T05:00:05.418Z,102396.94
2023-05-15T05:02:35.024Z,102403.78
2023-05-15T05:05:03.277Z,102404.84
2023-05-15T05:07:31.390Z,102414.66
2023-05-15T05:09:59.523Z,102421.47
2023-05-15T05:12:28.098Z,102418.13
2023-05-15T05:14:56.959Z,102414.88
2023-05-15T05:17:25.210Z,102414.66
2023-05-15T05:19:54.848Z,102424.22
2023-05-15T05:22:23.132Z,102420.63
2023-05-15T05:24:51.306Z,102427.09
2023-05-15T05:27:19.887Z,102423.25
2023-05-15T05:29:48.186Z,102430.22
2023-05-15T05:32:16.244Z,102425.28
2023-05-15T05:34:44.434Z,102438.09
2023-05-15T05:37:14.174Z,102432.34
2023-05-15T05:39:42.311Z,102430.44
2023-05-15T05:42:10.715Z,102441.44
2023-05-15T05:44:38.976Z,102435.69
2023-05-15T05:47:07.224Z,102437.00
2023-05-15T05:49:35.474Z,102437.59
2023-05-15T05:52:08.625Z,102440.72
2023-05-15T05:54:38.128Z,102434.72
2023-05-15T05:57:07.767Z,102439.63
2023-05-15T05:59:37.432Z,102447.06
2023-05-15T06:02:06.111Z,102443.22
2023-05-15T06:04:34.743Z,102443.56
2023-05-15T06:07:04.662Z,102447.16
2023-05-15T06:09:32.863Z,102447.63
2023-05-15T06:12:04.810Z,102445.31
2023-05-15T06:14:33.038Z,102443.88
2023-05-15T06:17:02.122Z,102438.00
2023-05-15T06:19:30.848Z,102441.63
2023-05-15T06:21:59.090Z,102449.88
2023-05-15T06:24:27.261Z,102450.81
2023-05-15T06:26:55.653Z,102453.66
2023-05-15T06:29:25.255Z,102450.50
2023-05-15T06:31:53.476Z,102454.03
2023-05-15T06:34:21.732Z,102447.69
2023-05-15T06:36:49.795Z,102446.81
2023-05-15T06:39:18.129Z,102441.84
2023-05-15T06:41:46.273Z,102438.78
2023-05-15T06:44:14.504Z,102443.22
2023-05-15T06:46:44.153Z,102444.03
2023-05-15T06:49:12.424Z,102446.25
2023-05-15T06:51:40.566Z,102452.13
2023-05-15T06:54:08.933Z,102454.16
2023-05-15T06:56:37.088Z,102454.09
2023-05-15T06:59:05.309Z,102462.66
2023-05-15T07:01:33.590Z,102460.03
2023-05-15T07:04:03.576Z,102462.38
2023-05-15T07:06:32.580Z,102454.75
2023-05-15T07:09:00.885Z,102455.69
2023-05-15T07:11:29.640Z,102459.47
2023-05-15T07:13:57.876Z,102460.25
2023-05-15T07:16:26.056Z,102461.06
2023-05-15T07:18:54.266Z,102465.63
2023-05-15T07:21:24.005Z,102469.25
2023-05-15T07:23:52.238Z,102472.53
2023-05-15T07:26:32.514Z,102477.53
2023-05-15T07:29:04.806Z,102480.84
2023-05-15T07:31:33.736Z,102487.28
2023-05-15T07:34:01.878Z,102486.59
2023-05-15T07:36:31.817Z,102489.66
2023-05-15T07:39:00.028Z,102494.00
2023-05-15T07:41:28.143Z,102496.97
2023-05-15T07:43:56.353Z,102505.59
2023-05-15T07:46:24.792Z,102505.34
2023-05-15T07:48:52.969Z,102499.63
2023-05-15T07:51:21.050Z,102499.34
2023-05-15T07:53:50.739Z,102495.84
2023-05-15T07:56:18.846Z,102493.94
2023-05-15T07:58:47.071Z,102497.81
2023-05-15T08:01:15.245Z,102492.22
2023-05-15T08:03:43.687Z,102488.63
2023-05-15T08:06:11.870Z,102485.00
2023-05-15T08:08:40.040Z,102494.75
2023-05-15T08:11:09.642Z,102490.44
2023-05-15T08:13:37.824Z,102482.03
2023-05-15T08:16:06.800Z,102485.25
2023-05-15T08:18:35.135Z,102482.50
2023-05-15T08:21:04.775Z,102490.16
2023-05-15T08:23:33.038Z,102489.72
2023-05-15T08:26:01.227Z,102492.78
2023-05-15T08:28:30.890Z,102490.53
2023-05-15T08:30:59.040Z,102497.75
2023-05-15T08:33:27.176Z,102507.13
2023-05-15T08:35:55.430Z,102503.75
2023-05-15T08:38:23.971Z,102508.22
2023-05-15T08:40:54.136Z,102508.50
2023-05-15T08:43:24.731Z,102506.94
2023-05-15T08:45:56.275Z,102508.31
2023-05-15T08:48:26.410Z,102511.38
2023-05-15T08:50:57.889Z,102509.94
2023-05-15T08:53:26.264Z,102505.91
2023-05-15T08:55:54.474Z,102507.66
2023-05-15T08:58:26.159Z,102513.66
2023-05-15T09:00:55.801Z,102506.38
2023-05-15T09:03:24.463Z,102511.28
2023-05-15T09:05:54.000Z,102514.16
2023-05-15T09:08:23.890Z,102517.88
2023-05-15T09:10:54.369Z,102522.19
2023-05-15T09:13:22.453Z,102525.66
2023-05-15T09:15:50.861Z,102525.06
2023-05-15T09:18:21.364Z,102522.41
2023-05-15T09:20:49.485Z,102526.78
2023-05-15T09:23:26.163Z,102528.50
2023-05-15T09:25:56.380Z,102523.56
2023-05-15T09:28:30.044Z,102532.28
2023-05-15T09:31:01.217Z,102528.00
2023-05-15T09:33:33.149Z,102518.53
2023-05-15T09:36:01.948Z,102515.44
2023-05-15T09:38:30.997Z,102514.03
2023-05-15T09:41:03.964Z,102518.56
2023-05-15T09:43:36.384Z,102510.47
2023-05-15T09:46:04.790Z,102524.03
2023-05-15T09:48:35.618Z,102524.56
2023-05-15T09:51:05.874Z,102514.97
2023-05-15T09:53:34.726Z,102523.47
2023-05-15T09:56:04.707Z,102520.34
2023-05-15T09:58:33.120Z,102517.50
2023-05-15T10:01:02.797Z,102514.03
2023-05-15T10:03:31.024Z,102520.47
2023-05-15T10:06:04.814Z,102527.63
2023-05-15T10:08:34.546Z,102517.88
2023-05-15T10:11:03.792Z,102522.66
2023-05-15T10:13:35.602Z,102531.38
2023-05-15T10:16:05.027Z,102520.38
2023-05-15T10:18:37.306Z,102523.53
2023-05-15T10:21:09.010Z,102520.59
2023-05-15T10:23:37.750Z,102523.97
2023-05-15T10:26:12.450Z,102518.78
2023-05-15T10:28:42.924Z,102528.22
2023-05-15T10:31:14.139Z,102525.44
2023-05-15T10:33:43.273Z,102526.91
2023-05-15T10:36:14.586Z,102528.72
2023-05-15T10:38:44.572Z,102525.63
2023-05-15T10:41:17.714Z,102534.22
2023-05-15T10:43:47.140Z,102537.00
2023-05-15T10:46:16.228Z,102536.03
2023-05-15T10:48:44.958Z,102539.91
2023-05-15T10:51:28.677Z,102539.78
2023-05-15T10:53:58.196Z,102539.03
2023-05-15T10:56:28.333Z,102546.47
2023-05-15T10:58:56.901Z,102554.88
2023-05-15T11:01:29.695Z,102553.22
2023-05-15T11:04:11.529Z,102546.47
2023-05-15T11:06:42.473Z,102550.31
2023-05-15T11:09:36.507Z,102555.72
2023-05-15T11:12:06.430Z,102549.41
2023-05-15T11:14:37.410Z,102555.25
2023-05-15T11:17:07.407Z,102546.91
2023-05-15T11:19:42.338Z,102547.81
2023-05-15T11:22:20.521Z,102541.88
2023-05-15T11:24:53.732Z,102550.50
2023-05-15T11:27:24.047Z,102545.44
2023-05-15T11:30:11.761Z,102547.16
2023-05-15T11:32:55.702Z,102541.50
2023-05-15T11:35:25.658Z,102538.53
2023-05-15T11:37:56.816Z,102541.50
2023-05-15T11:40:27.686Z,102544.69
2023-05-15T11:43:20.488Z,102540.28
2023-05-15T11:45:50.422Z,102539.31
2023-05-15T11:48:19.734Z,102538.31
2023-05-15T11:50:48.255Z,102542.41
2023-05-15T11:53:18.256Z,102531.56
2023-05-15T11:55:46.524Z,102548.13
2023-05-15T11:58:16.400Z,102543.13
2023-05-15T12:00:45.752Z,102546.78
2023-05-15T12:03:18.265Z,102548.53
2023-05-15T12:05:57.396Z,102550.13
2023-05-15T12:08:33.637Z,102540.72
2023-05-15T12:11:02.513Z,102542.88
2023-05-15T12:13:32.060Z,102540.25
2023-05-15T12:16:01.046Z,102539.47
2023-05-15T12:18:29.348Z,102532.53
2023-05-15T12:20:57.954Z,102537.78
2023-05-15T12:23:28.995Z,102536.19
2023-05-15T12:26:02.163Z,102526.59
2023-05-15T12:28:31.312Z,102525.44
2023-05-15T12:31:00.770Z,102527.75
2023-05-15T12:33:29.381Z,102527.44
2023-05-15T12:36:01.048Z,102534.25
2023-05-15T12:38:33.984Z,102548.38
2023-05-15T12:41:02.306Z,102540.34
2023-05-15T12:43:33.006Z,102547.25
2023-05-15T12:46:01.176Z,102540.97
2023-05-15T12:48:33.618Z,102542.16
2023-05-15T12:51:09.232Z,102537.66
2023-05-15T12:53:40.059Z,102535.00
2023-05-15T12:56:09.135Z,102536.63
2023-05-15T12:58:38.375Z,102549.59
2023-05-15T13:01:06.904Z,102549.31
2023-05-15T13:03:35.725Z,102550.94
2023-05-15T13:06:04.420Z,102547.72
2023-05-15T13:08:32.701Z,102549.16
2023-05-15T13:11:02.230Z,102542.88
2023-05-15T13:13:47.217Z,102542.63
2023-05-15T13:16:22.815Z,102546.91
2023-05-15T13:18:51.296Z,102539.41
2023-05-15T13:21:19.540Z,102540.72
2023-05-15T13:23:47.725Z,102539.25
2023-05-15T13:26:18.725Z,102541.50
2023-05-15T13:28:47.034Z,102550.28
2023-05-15T13:31:15.296Z,102541.03
2023-05-15T13:33:43.536Z,102555.28
2023-05-15T13:36:11.707Z,102553.88
2023-05-15T13:38:39.869Z,102560.44
2023-05-15T13:41:09.236Z,102550.81
2023-05-15T13:43:38.779Z,102553.13
2023-05-15T13:46:06.977Z,102548.53
2023-05-15T13:48:35.148Z,102547.28
2023-05-15T13:51:03.382Z,102549.94
2023-05-15T13:53:31.581Z,102548.25
2023-05-15T13:55:59.757Z,102549.94
2023-05-15T13:58:27.923Z,102557.66
2023-05-15T14:00:57.589Z,102554.78
2023-05-15T14:03:25.949Z,102562.09
2023-05-15T14:05:54.221Z,102557.78
2023-05-15T14:08:22.401Z,102553.13
2023-05-15T14:10:50.530Z,102558.06
2023-05-15T14:13:18.655Z,102563.69
2023-05-15T14:15:46.855Z,102559.72
2023-05-15T14:18:16.459Z,102551.09
2023-05-15T14:20:44.724Z,102558.97
2023-05-15T14:23:12.931Z,102552.00
2023-05-15T14:25:42.303Z,102547.53
2023-05-15T14:28:10.488Z,102548.19
2023-05-15T14:30:38.820Z,102557.50
2023-05-15T14:33:06.966Z,102556.25
2023-05-15T14:35:37.587Z,102546.50
2023-05-15T14:38:05.906Z,102549.81
2023-05-15T14:40:34.127Z,102546.00
2023-05-15T14:43:02.207Z,102545.81
2023-05-15T14:45:30.315Z,102537.03
2023-05-15T14:47:58.549Z,102544.03
2023-05-15T14:50:27.107Z,102540.22
2023-05-15T14:52:56.872Z,102544.22
2023-05-15T14:55:25.051Z,102539.31
2023-05-15T14:57:53.132Z,102542.56
2023-05-15T15:00:21.519Z,102541.19
2023-05-15T15:02:49.741Z,102536.41
2023-05-15T15:05:18.670Z,102533.28
2023-05-15T15:08:04.213Z,102545.53
2023-05-15T15:10:33.394Z,102545.53
2023-05-15T15:13:01.710Z,102546.22
2023-05-15T15:15:30.267Z,102540.03
2023-05-15T15:17:58.713Z,102537.06
2023-05-15T15:20:28.192Z,102544.38
2023-05-15T15:22:57.307Z,102538.25
2023-05-15T15:25:26.881Z,102538.34
2023-05-15T15:27:54.999Z,102539.91
2023-05-15T15:30:23.333Z,102541.06
2023-05-15T15:32:51.623Z,102538.72
2023-05-15T15:35:19.754Z,102530.84
2023-05-15T15:37:47.908Z,102528.72
2023-05-15T15:40:16.144Z,102531.44
2023-05-15T15:42:45.708Z,102532.28
2023-05-15T15:45:13.847Z,102534.50
2023-05-15T15:47:42.038Z,102535.25
2023-05-15T15:50:10.617Z,102536.94
2023-05-15T15:52:38.809Z,102528.13
2023-05-15T15:55:08.182Z,102540.97
2023-05-15T15:57:38.016Z,102531.19
2023-05-15T16:00:09.718Z,102522.75
2023-05-15T16:02:37.925Z,102521.78
2023-05-15T16:05:07.789Z,102514.44
2023-05-15T16:07:36.287Z,102520.78
2023-05-15T16:10:12.246Z,102517.44
2023-05-15T16:12:42.635Z,102517.72
2023-05-15T16:15:23.194Z,102521.06
2023-05-15T16:17:54.352Z,102515.69
2023-05-15T16:20:23.544Z,102513.78
2023-05-15T16:22:51.754Z,102509.91
2023-05-15T16:25:19.978Z,102516.19
2023-05-15T16:27:48.078Z,102514.16
2023-05-15T16:30:17.690Z,102523.75
2023-05-15T16:32:46.666Z,102523.06
2023-05-15T16:35:15.029Z,102530.56
2023-05-15T16:37:43.164Z,102530.50
2023-05-15T16:40:12.231Z,102541.31
2023-05-15T16:42:41.499Z,102541.47
2023-05-15T16:45:10.675Z,102538.94
2023-05-15T16:47:41.447Z,102543.13
2023-05-15T16:50:10.574Z,102538.94
2023-05-15T16:52:45.216Z,102545.63
2023-05-15T16:55:15.498Z,102540.13
2023-05-15T16:57:43.988Z,102541.06
2023-05-15T17:00:14.252Z,102544.72
2023-05-15T17:02:44.229Z,102546.38
2023-05-15T17:05:14.121Z,102550.22
2023-05-15T17:07:43.263Z,102553.31
2023-05-15T17:10:12.509Z,102550.84
2023-05-15T17:12:41.156Z,102556.44
2023-05-15T17:15:10.008Z,102556.97
2023-05-15T17:17:38.270Z,102552.63
2023-05-15T17:20:09.238Z,102556.66
2023-05-15T17:22:37.506Z,102553.31
2023-05-15T17:25:07.178Z,102545.19
2023-05-15T17:27:39.903Z,102548.84
2023-05-15T17:30:09.812Z,102553.31
2023-05-15T17:32:38.216Z,102549.38
2023-05-15T17:35:09.251Z,102560.13
2023-05-15T17:37:37.686Z,102554.81
2023-05-15T17:40:07.111Z,102555.16
2023-05-15T17:42:36.111Z,102564.63
2023-05-15T17:45:04.494Z,102550.50
2023-05-15T17:47:32.624Z,102553.03
2023-05-15T17:50:00.946Z,102559.00
2023-05-15T17:52:30.415Z,102555.00
2023-05-15T17:54:58.563Z,102558.94
2023-05-15T17:57:26.800Z,102555.63
2023-05-15T17:59:54.825Z,102564.34
2023-05-15T18:02:22.986Z,102565.88
2023-05-15T18:04:51.241Z,102559.34
2023-05-15T18:07:19.659Z,102563.66
2023-05-15T18:09:49.272Z,102564.66
2023-05-15T18:12:17.511Z,102567.63
2023-05-15T18:14:46.138Z,102568.91
2023-05-15T18:17:14.269Z,102563.06
2023-05-15T18:19:44.952Z,102565.03
2023-05-15T18:22:13.196Z,102564.06
2023-05-15T18:24:41.479Z,102569.19
2023-05-15T18:27:11.064Z,102566.88
2023-05-15T18:29:39.318Z,102572.31
2023-05-15T18:32:07.778Z,102572.75
2023-05-15T18:34:35.910Z,102568.78
2023-05-15T18:37:04.053Z,102563.97
2023-05-15T18:39:32.150Z,102562.69
2023-05-15T18:42:00.475Z,102571.34
2023-05-15T18:44:32.380Z,102564.22
2023-05-15T18:47:00.746Z,102563.88
2023-05-15T18:49:29.612Z,102559.41
2023-05-15T18:51:58.021Z,102566.41
2023-05-15T18:54:26.482Z,102576.50
2023-05-15T18:56:54.692Z,102562.84
2023-05-15T18:59:23.479Z,102568.91
2023-05-15T19:01:54.010Z,102569.50
2023-05-15T19:04:22.751Z,102571.34
2023-05-15T19:06:50.909Z,102575.81
2023-05-15T19:09:19.348Z,102569.59
2023-05-15T19:11:49.548Z,102576.16
2023-05-15T19:14:18.633Z,102573.69
2023-05-15T19:16:47.241Z,102570.66
2023-05-15T19:19:16.939Z,102576.06
2023-05-15T19:21:45.164Z,102576.25
2023-05-15T19:24:13.634Z,102577.34
2023-05-15T19:26:41.793Z,102580.16
2023-05-15T19:29:10.024Z,102580.63
2023-05-15T19:31:38.858Z,102584.94
2023-05-15T19:34:07.042Z,102588.72
2023-05-15T19:36:36.633Z,102592.50
2023-05-15T19:39:05.100Z,102585.66
2023-05-15T19:41:33.190Z,102597.53
2023-05-15T19:44:02.198Z,102601.47
2023-05-15T19:46:30.841Z,102598.41
2023-05-15T19:48:58.969Z,102602.50
2023-05-15T19:51:27.206Z,102592.63
2023-05-15T19:53:59.311Z,102592.06
2023-05-15T19:56:27.600Z,102602.44
2023-05-15T19:58:55.798Z,102604.69
2023-05-15T20:01:24.005Z,102599.50
2023-05-15T20:03:52.299Z,102600.50
2023-05-15T20:06:21.477Z,102604.28
2023-05-15T20:08:50.411Z,102608.59
2023-05-15T20:11:19.928Z,102611.25
2023-05-15T20:13:48.034Z,102608.59
2023-05-15T20:16:16.749Z,102608.59
2023-05-15T20:18:48.092Z,102610.41
2023-05-15T20:21:16.925Z,102608.75
2023-05-15T20:23:45.258Z,102614.19
2023-05-15T20:26:13.339Z,102615.31
2023-05-15T20:28:45.222Z,102612.66
2023-05-15T20:31:13.748Z,102620.91
2023-05-15T20:33:41.981Z,102624.53
2023-05-15T20:36:10.731Z,102628.44
2023-05-15T20:38:38.923Z,102619.81
2023-05-15T20:41:07.181Z,102638.78
2023-05-15T20:43:35.366Z,102645.03
2023-05-15T20:46:04.991Z,102642.69
2023-05-15T20:48:33.184Z,102647.59
2023-05-15T20:51:01.382Z,102652.16
2023-05-15T20:53:29.758Z,102655.81
2023-05-15T20:55:57.947Z,102657.47
2023-05-15T20:58:26.245Z,102664.44
2023-05-15T21:00:54.435Z,102665.28
2023-05-15T21:03:24.305Z,102667.78
2023-05-15T21:05:54.835Z,102665.28
2023-05-15T21:08:24.956Z,102671.84
2023-05-15T21:10:55.566Z,102673.78
2023-05-15T21:13:23.787Z,102671.28
2023-05-15T21:15:52.222Z,102672.53
2023-05-15T21:18:20.434Z,102660.69
2023-05-15T21:20:49.963Z,102676.75
2023-05-15T21:23:18.321Z,102672.81
2023-05-15T21:25:46.641Z,102670.31
2023-05-15T21:28:14.840Z,102685.78
2023-05-15T21:30:43.048Z,102685.38
2023-05-15T21:33:11.370Z,102680.47
2023-05-15T21:35:39.845Z,102691.22
2023-05-15T21:38:09.504Z,102686.88
2023-05-15T21:40:37.841Z,102678.25
2023-05-15T21:43:06.095Z,102685.72
2023-05-15T21:45:34.230Z,102698.25
2023-05-15T21:48:02.574Z,102690.59
2023-05-15T21:50:30.795Z,102687.25
2023-05-15T21:52:58.970Z,102687.38
2023-05-15T21:55:28.580Z,102689.34
2023-05-15T21:57:56.769Z,102697.41
2023-05-15T22:00:25.241Z,102701.44
2023-05-15T22:02:53.652Z,102699.03
2023-05-15T22:05:21.885Z,102701.41
2023-05-15T22:07:50.113Z,102709.59
2023-05-15T22:10:18.511Z,102701.66
2023-05-15T22:12:48.068Z,102713.63
2023-05-15T22:15:16.774Z,102709.31
2023-05-15T22:17:44.946Z,102702.47
2023-05-15T22:20:14.274Z,102704.44
2023-05-15T22:22:43.608Z,102714.28
2023-05-15T22:25:12.136Z,102711.09
2023-05-15T22:27:40.403Z,102709.69
2023-05-15T22:30:10.997Z,102714.97
2023-05-15T22:32:39.371Z,102713.00
2023-05-15T22:35:09.243Z,102720.09
2023-05-15T22:37:37.316Z,102721.06
2023-05-15T22:40:07.610Z,102719.50
2023-05-15T22:42:35.828Z,102723.13
2023-05-15T22:45:04.367Z,102725.19
2023-05-15T22:47:34.482Z,102721.84
2023-05-15T22:50:02.904Z,102721.16
2023-05-15T22:52:31.019Z,102727.69
2023-05-15T22:54:59.323Z,102723.47
2023-05-15T22:57:28.306Z,102722.06
2023-05-15T22:59:56.473Z,102722.06
2023-05-15T23:02:24.714Z,102721.63
2023-05-15T23:04:54.230Z,102728.00
2023-05-15T23:07:22.712Z,102723.13
2023-05-15T23:09:51.029Z,102740.06
2023-05-15T23:12:19.173Z,102737.66
2023-05-15T23:14:47.261Z,102739.47
2023-05-15T23:17:15.435Z,102732.91
2023-05-15T23:19:43.610Z,102737.59
2023-05-15T23:22:13.983Z,102739.56
2023-05-15T23:24:42.331Z,102736.31
2023-05-15T23:27:10.422Z,102736.47
2023-05-15T23:29:38.520Z,102731.41
2023-05-15T23:32:09.776Z,102737.53
2023-05-15T23:34:37.925Z,102744.78
2023-05-15T23:37:06.481Z,102745.84
2023-05-15T23:39:36.291Z,102740.09
2023-05-15T23:42:04.539Z,102749.72
2023-05-15T23:44:32.830Z,102746.38
2023-05-15T23:47:01.047Z,102751.78
2023-05-15T23:49:29.367Z,102747.56
2023-05-15T23:51:57.514Z,102750.56
2023-05-15T23:54:26.129Z,102748.06
2023-05-15T23:56:55.777Z,102747.22
2023-05-15T23:59:23.953Z,102743.03
